createdAt,value
2022-12-03T00:00:36.447Z,2.58
2022-12-03T00:03:39.044Z,2.60
2022-12-03T00:06:43.146Z,2.66
2022-12-03T00:09:46.028Z,2.67
2022-12-03T00:12:49.842Z,2.61
2022-12-03T00:15:52.368Z,2.67
2022-12-03T00:18:55.102Z,2.37
2022-12-03T00:21:57.562Z,2.21
2022-12-03T00:25:00.158Z,2.15
2022-12-03T00:28:04.179Z,2.35
2022-12-03T00:31:07.297Z,2.31
2022-12-03T00:34:09.863Z,2.34
2022-12-03T00:37:12.304Z,2.31
2022-12-03T00:40:14.988Z,2.34
2022-12-03T00:43:18.757Z,2.34
2022-12-03T00:46:21.854Z,2.25
2022-12-03T00:49:24.380Z,2.42
2022-12-03T00:52:26.875Z,2.28
2022-12-03T00:55:29.298Z,2.27
2022-12-03T00:58:33.083Z,2.22
2022-12-03T01:01:35.581Z,2.10
2022-12-03T01:04:38.276Z,2.19
2022-12-03T01:07:40.804Z,2.25
2022-12-03T01:10:43.289Z,2.17
2022-12-03T01:13:47.104Z,2.15
2022-12-03T01:16:49.653Z,2.17
2022-12-03T01:19:52.652Z,2.07
2022-12-03T01:22:55.030Z,2.10
2022-12-03T01:25:57.388Z,2.10
2022-12-03T01:29:01.206Z,2.23
2022-12-03T01:32:19.486Z,2.14
2022-12-03T01:35:22.097Z,2.10
2022-12-03T01:38:24.579Z,2.07
2022-12-03T01:41:27.768Z,2.10
2022-12-03T01:44:34.787Z,2.07
2022-12-03T01:47:38.322Z,2.22
2022-12-03T01:50:42.635Z,2.22
2022-12-03T01:53:46.031Z,2.37
2022-12-03T01:56:49.172Z,2.29
2022-12-03T01:59:54.175Z,2.26
2022-12-03T02:02:59.529Z,2.30
2022-12-03T02:06:02.096Z,2.21
2022-12-03T02:09:08.448Z,2.19
2022-12-03T02:12:11.400Z,2.13
2022-12-03T02:15:15.315Z,2.18
2022-12-03T02:18:18.232Z,2.26
2022-12-03T02:21:29.274Z,2.31
2022-12-03T02:24:37.319Z,2.43
2022-12-03T02:27:41.665Z,2.41
2022-12-03T02:30:44.196Z,2.16
2022-12-03T02:33:46.748Z,2.26
2022-12-03T02:36:49.190Z,2.20
2022-12-03T02:39:55.023Z,2.30
2022-12-03T02:43:01.235Z,2.36
2022-12-03T02:46:05.038Z,2.44
2022-12-03T02:49:07.847Z,2.52
2022-12-03T02:52:10.986Z,2.39
2022-12-03T02:55:15.396Z,2.39
2022-12-03T02:58:20.878Z,2.41
2022-12-03T03:01:23.365Z,2.43
2022-12-03T03:04:25.965Z,2.38
2022-12-03T03:07:28.771Z,2.23
2022-12-03T03:10:33.986Z,2.09
2022-12-03T03:13:38.988Z,2.09
2022-12-03T03:16:41.663Z,2.17
2022-12-03T03:19:44.374Z,2.24
2022-12-03T03:22:46.794Z,2.23
2022-12-03T03:25:54.635Z,2.00
2022-12-03T03:29:02.048Z,2.05
2022-12-03T03:32:05.224Z,2.07
2022-12-03T03:35:10.809Z,2.12
2022-12-03T03:38:13.988Z,2.09
2022-12-03T03:41:17.243Z,2.07
2022-12-03T03:44:21.139Z,2.05
2022-12-03T03:47:24.084Z,2.06
2022-12-03T03:50:28.266Z,2.05
2022-12-03T03:53:30.997Z,2.08
2022-12-03T03:56:34.573Z,2.02
2022-12-03T03:59:38.435Z,1.99
2022-12-03T04:02:41.580Z,2.02
2022-12-03T04:05:44.088Z,2.03
2022-12-03T04:08:47.809Z,2.04
2022-12-03T04:12:08.912Z,1.93
2022-12-03T04:15:12.711Z,1.65
2022-12-03T04:18:33.503Z,1.86
2022-12-03T04:21:54.806Z,1.90
2022-12-03T04:25:17.221Z,1.77
2022-12-03T04:28:38.402Z,1.75
2022-12-03T04:32:00.703Z,1.89
2022-12-03T04:35:22.367Z,1.86
2022-12-03T04:38:24.900Z,1.72
2022-12-03T04:41:27.351Z,1.81
2022-12-03T04:44:38.898Z,1.73
2022-12-03T04:47:42.812Z,1.70
2022-12-03T04:50:45.310Z,1.64
2022-12-03T04:53:47.877Z,1.60
2022-12-03T04:56:50.311Z,1.51
2022-12-03T04:59:54.154Z,1.63
2022-12-03T05:02:57.944Z,1.42
2022-12-03T05:06:00.372Z,1.57
2022-12-03T05:09:03.077Z,1.59
2022-12-03T05:12:05.982Z,1.39
2022-12-03T05:15:09.127Z,1.28
2022-12-03T05:18:13.011Z,1.35
2022-12-03T05:21:15.593Z,1.31
2022-12-03T05:24:18.040Z,1.32
2022-12-03T05:27:23.906Z,1.20
2022-12-03T05:30:27.033Z,1.13
2022-12-03T05:33:30.919Z,1.00
2022-12-03T05:36:33.385Z,1.15
2022-12-03T05:39:35.791Z,1.10
2022-12-03T05:42:56.711Z,1.02
2022-12-03T05:45:59.205Z,1.11
2022-12-03T05:49:03.167Z,0.86
2022-12-03T05:52:06.004Z,0.94
2022-12-03T05:55:09.154Z,1.10
2022-12-03T05:58:11.988Z,0.94
2022-12-03T06:01:14.400Z,1.00
2022-12-03T06:04:18.140Z,1.05
2022-12-03T06:07:20.734Z,0.98
2022-12-03T06:10:25.462Z,1.09
2022-12-03T06:13:27.864Z,1.11
2022-12-03T06:16:30.387Z,1.13
2022-12-03T06:19:34.431Z,1.02
2022-12-03T06:22:36.847Z,1.06
2022-12-03T06:25:39.361Z,0.98
2022-12-03T06:28:46.338Z,1.04
2022-12-03T06:31:48.853Z,1.19
2022-12-03T06:34:53.050Z,1.30
2022-12-03T06:37:55.796Z,1.25
2022-12-03T06:40:58.234Z,1.30
2022-12-03T06:44:00.752Z,1.49
2022-12-03T06:47:03.248Z,1.42
2022-12-03T06:50:08.905Z,1.45
2022-12-03T06:53:11.347Z,1.51
2022-12-03T06:56:13.793Z,1.42
2022-12-03T06:59:16.250Z,1.61
2022-12-03T07:02:18.886Z,1.52
2022-12-03T07:05:23.503Z,1.59
2022-12-03T07:08:26.205Z,1.66
2022-12-03T07:11:31.436Z,1.72
2022-12-03T07:14:33.998Z,1.65
2022-12-03T07:17:36.446Z,1.70
2022-12-03T07:20:40.223Z,1.91
2022-12-03T07:23:42.868Z,1.89
2022-12-03T07:26:45.416Z,1.97
2022-12-03T07:29:48.054Z,1.95
2022-12-03T07:32:50.576Z,1.81
2022-12-03T07:35:54.418Z,2.06
2022-12-03T07:39:15.605Z,2.02
2022-12-03T07:42:19.046Z,2.00
2022-12-03T07:45:21.439Z,2.09
2022-12-03T07:48:24.083Z,2.26
2022-12-03T07:51:32.130Z,2.34
2022-12-03T07:54:35.219Z,2.71
2022-12-03T07:57:37.838Z,2.74
2022-12-03T08:00:40.531Z,2.43
2022-12-03T08:03:43.121Z,3.05
2022-12-03T08:06:47.878Z,2.80
2022-12-03T08:09:50.665Z,3.06
2022-12-03T08:12:53.790Z,3.25
2022-12-03T08:16:01.156Z,3.55
2022-12-03T08:19:09.419Z,3.42
2022-12-03T08:22:14.686Z,3.76
2022-12-03T08:25:21.142Z,3.88
2022-12-03T08:28:28.140Z,3.73
2022-12-03T08:31:33.650Z,3.92
2022-12-03T08:34:40.369Z,3.98
2022-12-03T08:37:44.356Z,4.11
2022-12-03T08:40:49.289Z,3.91
2022-12-03T08:43:51.701Z,3.38
2022-12-03T08:46:59.996Z,3.82
2022-12-03T08:50:26.257Z,3.83
2022-12-03T08:53:35.354Z,3.80
2022-12-03T08:56:37.943Z,4.16
2022-12-03T08:59:45.365Z,3.92
2022-12-03T09:02:51.459Z,3.60
2022-12-03T09:05:53.961Z,3.95
2022-12-03T09:09:01.131Z,3.94
2022-12-03T09:12:06.737Z,4.16
2022-12-03T09:15:09.864Z,4.63
2022-12-03T09:18:12.404Z,4.52
2022-12-03T09:21:15.036Z,4.77
2022-12-03T09:24:19.588Z,4.67
2022-12-03T09:27:22.888Z,4.79
2022-12-03T09:30:25.500Z,4.98
2022-12-03T09:33:28.067Z,5.33
2022-12-03T09:36:30.689Z,5.47
2022-12-03T09:39:34.798Z,6.16
2022-12-03T09:42:58.576Z,6.30
2022-12-03T09:46:01.409Z,6.69
2022-12-03T09:49:12.232Z,7.71
2022-12-03T09:52:24.155Z,8.69
2022-12-03T09:55:29.987Z,8.42
2022-12-03T09:58:34.937Z,8.45
2022-12-03T10:01:39.067Z,8.09
2022-12-03T10:04:41.657Z,8.24
2022-12-03T10:07:44.375Z,8.54
2022-12-03T10:10:50.486Z,9.11
2022-12-03T10:13:56.019Z,9.58
2022-12-03T10:17:00.126Z,9.99
2022-12-03T10:20:02.757Z,10.08
2022-12-03T10:23:05.675Z,10.06
2022-12-03T10:26:09.611Z,10.25
2022-12-03T10:29:13.374Z,11.10
2022-12-03T10:32:15.843Z,10.45
2022-12-03T10:35:20.721Z,10.61
2022-12-03T10:38:23.580Z,9.99
2022-12-03T10:41:28.847Z,11.54
2022-12-03T10:44:31.283Z,11.59
2022-12-03T10:47:33.878Z,11.56
2022-12-03T10:50:37.212Z,11.82
2022-12-03T10:53:40.817Z,11.33
2022-12-03T10:56:46.156Z,10.90
2022-12-03T10:59:49.466Z,10.47
2022-12-03T11:03:18.138Z,10.97
2022-12-03T11:06:22.584Z,11.14
2022-12-03T11:09:28.509Z,11.76
2022-12-03T11:12:34.674Z,11.06
2022-12-03T11:15:45.122Z,12.03
2022-12-03T11:19:02.257Z,12.45
2022-12-03T11:22:23.929Z,12.76
2022-12-03T11:25:49.557Z,12.63
2022-12-03T11:28:56.085Z,12.72
2022-12-03T11:31:59.327Z,10.92
2022-12-03T11:35:01.747Z,11.13
2022-12-03T11:38:50.717Z,12.23
2022-12-03T11:42:29.506Z,12.93
2022-12-03T11:45:35.953Z,12.93
2022-12-03T11:48:44.155Z,12.77
2022-12-03T11:51:47.108Z,12.69
2022-12-03T11:54:53.865Z,12.60
2022-12-03T11:58:01.965Z,11.19
2022-12-03T12:01:08.000Z,12.60
2022-12-03T12:04:28.198Z,12.18
2022-12-03T12:07:50.270Z,12.08
2022-12-03T12:10:52.822Z,12.36
2022-12-03T12:13:57.167Z,12.05
2022-12-03T12:17:03.284Z,11.54
2022-12-03T12:20:23.523Z,11.41
2022-12-03T12:23:29.089Z,10.56
2022-12-03T12:26:31.526Z,10.89
2022-12-03T12:29:34.715Z,10.40
2022-12-03T12:32:45.935Z,10.15
2022-12-03T12:35:48.809Z,10.02
2022-12-03T12:38:51.264Z,9.95
2022-12-03T12:41:55.373Z,9.47
2022-12-03T12:45:01.231Z,9.58
2022-12-03T12:48:15.688Z,9.41
2022-12-03T12:51:18.844Z,9.19
2022-12-03T12:54:21.459Z,9.35
2022-12-03T12:57:24.299Z,9.39
2022-12-03T13:00:26.824Z,9.28
2022-12-03T13:03:34.034Z,9.10
2022-12-03T13:06:36.530Z,8.79
2022-12-03T13:09:39.550Z,9.18
2022-12-03T13:12:42.156Z,8.96
2022-12-03T13:15:50.510Z,8.31
2022-12-03T13:18:55.565Z,8.75
2022-12-03T13:22:01.760Z,8.91
2022-12-03T13:25:58.150Z,9.08
2022-12-03T13:28:57.753Z,8.91
2022-12-03T13:32:10.111Z,9.19
2022-12-03T13:35:25.386Z,8.58
2022-12-03T13:38:28.052Z,8.67
2022-12-03T13:41:49.173Z,8.62
2022-12-03T13:44:53.233Z,8.57
2022-12-03T13:47:58.565Z,8.41
2022-12-03T13:51:26.207Z,8.49
2022-12-03T13:54:31.282Z,8.07
2022-12-03T13:57:33.711Z,8.04
2022-12-03T14:00:36.250Z,8.03
2022-12-03T14:03:38.817Z,8.08
2022-12-03T14:06:42.746Z,8.05
2022-12-03T14:09:45.256Z,8.05
2022-12-03T14:12:47.669Z,7.99
2022-12-03T14:15:50.193Z,7.79
2022-12-03T14:18:52.842Z,7.63
2022-12-03T14:21:56.775Z,7.60
2022-12-03T14:24:59.273Z,7.60
2022-12-03T14:28:01.926Z,7.71
2022-12-03T14:31:06.011Z,7.37
2022-12-03T14:34:08.888Z,7.31
2022-12-03T14:37:12.863Z,7.30
2022-12-03T14:40:20.972Z,7.13
2022-12-03T14:43:24.156Z,7.11
2022-12-03T14:46:26.858Z,7.05
2022-12-03T14:49:44.894Z,6.87
2022-12-03T14:52:49.117Z,6.75
2022-12-03T14:55:51.552Z,6.60
2022-12-03T14:58:54.202Z,6.54
2022-12-03T15:01:56.989Z,6.47
2022-12-03T15:04:59.599Z,6.38
2022-12-03T15:08:03.532Z,6.34
2022-12-03T15:11:06.494Z,6.23
2022-12-03T15:14:08.991Z,6.22
2022-12-03T15:17:11.545Z,6.16
2022-12-03T15:20:14.440Z,6.09
2022-12-03T15:23:18.508Z,6.01
2022-12-03T15:26:21.217Z,5.93
2022-12-03T15:29:23.772Z,5.91
2022-12-03T15:32:26.336Z,5.86
2022-12-03T15:35:28.901Z,5.66
2022-12-03T15:38:34.526Z,5.37
2022-12-03T15:41:37.469Z,5.40
2022-12-03T15:44:40.043Z,5.33
2022-12-03T15:47:42.557Z,5.25
2022-12-03T15:50:45.263Z,5.15
2022-12-03T15:53:49.175Z,5.06
2022-12-03T15:56:57.002Z,5.03
2022-12-03T16:00:00.321Z,4.94
2022-12-03T16:03:02.941Z,4.97
2022-12-03T16:06:06.001Z,4.95
2022-12-03T16:09:10.195Z,4.77
2022-12-03T16:12:12.618Z,4.69
2022-12-03T16:15:16.496Z,4.57
2022-12-03T16:18:19.005Z,4.57
2022-12-03T16:21:26.423Z,4.53
2022-12-03T16:24:31.019Z,4.48
2022-12-03T16:27:33.527Z,4.43
2022-12-03T16:30:37.097Z,4.35
2022-12-03T16:33:39.619Z,4.33
2022-12-03T16:36:42.132Z,4.15
2022-12-03T16:39:46.352Z,4.06
2022-12-03T16:42:48.747Z,4.11
2022-12-03T16:46:02.127Z,4.12
2022-12-03T16:49:06.217Z,4.07
2022-12-03T16:52:08.722Z,4.09
2022-12-03T16:55:13.333Z,4.09
2022-12-03T16:58:18.645Z,4.04
2022-12-03T17:01:23.446Z,3.94
2022-12-03T17:04:29.047Z,3.86
2022-12-03T17:07:31.515Z,3.79
2022-12-03T17:10:35.554Z,3.74
2022-12-03T17:13:38.003Z,3.69
2022-12-03T17:16:40.416Z,3.74
2022-12-03T17:19:42.947Z,3.83
2022-12-03T17:22:46.462Z,3.84
2022-12-03T17:25:50.381Z,3.86
2022-12-03T17:28:53.058Z,3.79
2022-12-03T17:31:55.574Z,3.67
2022-12-03T17:34:58.228Z,3.62
2022-12-03T17:38:02.510Z,3.57
2022-12-03T17:41:07.474Z,3.58
2022-12-03T17:44:12.084Z,3.64
2022-12-03T17:47:16.700Z,3.80
2022-12-03T17:50:19.369Z,3.90
2022-12-03T17:53:21.991Z,3.92
2022-12-03T17:56:26.292Z,4.03
2022-12-03T17:59:28.922Z,4.08
2022-12-03T18:02:31.547Z,4.07
2022-12-03T18:05:34.097Z,4.16
2022-12-03T18:08:36.506Z,4.11
2022-12-03T18:11:40.539Z,4.10
2022-12-03T18:14:43.067Z,4.14
2022-12-03T18:17:45.707Z,4.02
2022-12-03T18:20:48.403Z,3.82
2022-12-03T18:23:51.022Z,3.88
2022-12-03T18:26:56.179Z,4.02
2022-12-03T18:29:58.885Z,4.11
2022-12-03T18:33:01.364Z,4.13
2022-12-03T18:36:04.937Z,4.09
2022-12-03T18:39:12.273Z,4.16
2022-12-03T18:42:17.961Z,4.23
2022-12-03T18:45:20.780Z,4.16
2022-12-03T18:48:23.673Z,4.16
2022-12-03T18:51:28.653Z,4.21
2022-12-03T18:54:31.238Z,4.35
2022-12-03T18:57:35.196Z,4.16
2022-12-03T19:00:39.725Z,4.25
2022-12-03T19:03:42.236Z,4.07
2022-12-03T19:06:44.856Z,3.91
2022-12-03T19:09:48.687Z,3.94
2022-12-03T19:12:53.579Z,3.90
2022-12-03T19:15:56.385Z,3.97
2022-12-03T19:18:59.837Z,4.16
2022-12-03T19:22:03.635Z,4.22
2022-12-03T19:25:06.562Z,4.32
2022-12-03T19:28:10.335Z,4.28
2022-12-03T19:31:16.350Z,4.23
2022-12-03T19:34:19.583Z,4.18
2022-12-03T19:37:22.233Z,3.99
2022-12-03T19:40:24.873Z,4.03
2022-12-03T19:43:29.165Z,3.94
2022-12-03T19:46:31.957Z,3.94
2022-12-03T19:49:34.710Z,4.07
2022-12-03T19:52:38.339Z,4.24
2022-12-03T19:55:41.000Z,4.35
2022-12-03T19:58:46.783Z,4.36
2022-12-03T20:01:49.627Z,4.30
2022-12-03T20:04:52.307Z,4.28
2022-12-03T20:07:55.009Z,4.28
2022-12-03T20:11:07.394Z,4.35
2022-12-03T20:14:14.731Z,4.30
2022-12-03T20:17:17.472Z,4.16
2022-12-03T20:20:20.526Z,4.17
2022-12-03T20:23:23.307Z,4.14
2022-12-03T20:26:26.574Z,4.15
2022-12-03T20:29:30.896Z,4.28
2022-12-03T20:32:34.994Z,4.29
2022-12-03T20:35:37.961Z,4.27
2022-12-03T20:38:40.859Z,4.20
2022-12-03T20:41:44.895Z,4.20
2022-12-03T20:44:51.173Z,4.28
2022-12-03T20:47:53.870Z,4.15
2022-12-03T20:50:56.540Z,4.24
2022-12-03T20:54:00.174Z,4.36
2022-12-03T20:57:03.065Z,4.46
2022-12-03T21:00:08.404Z,4.39
2022-12-03T21:03:11.027Z,4.37
2022-12-03T21:06:14.601Z,4.45
2022-12-03T21:09:17.349Z,4.47
2022-12-03T21:12:21.095Z,4.43
2022-12-03T21:15:25.458Z,4.34
2022-12-03T21:18:28.179Z,4.41
2022-12-03T21:21:31.626Z,4.35
2022-12-03T21:24:34.462Z,4.44
2022-12-03T21:27:55.556Z,4.40
2022-12-03T21:31:04.512Z,4.20
2022-12-03T21:34:08.532Z,4.31
2022-12-03T21:37:11.267Z,4.21
2022-12-03T21:40:14.038Z,4.21
2022-12-03T21:43:16.519Z,4.24
2022-12-03T21:47:09.315Z,4.13
2022-12-03T21:49:44.083Z,4.07
2022-12-03T21:52:46.561Z,4.10
2022-12-03T21:55:49.159Z,4.00
2022-12-03T21:58:52.320Z,3.98
2022-12-03T22:01:56.466Z,3.97
2022-12-03T22:04:59.155Z,3.96
2022-12-03T22:08:01.699Z,3.91
2022-12-03T22:11:05.697Z,3.74
2022-12-03T22:14:09.835Z,3.66
2022-12-03T22:17:14.660Z,3.61
2022-12-03T22:20:17.202Z,3.62
2022-12-03T22:23:19.622Z,3.44
2022-12-03T22:26:22.458Z,3.44
2022-12-03T22:29:24.987Z,3.39
2022-12-03T22:32:28.876Z,3.38
2022-12-03T22:35:33.104Z,3.52
2022-12-03T22:38:35.614Z,3.47
2022-12-03T22:41:38.164Z,3.56
2022-12-03T22:44:40.667Z,3.59
2022-12-03T22:47:44.483Z,3.58
2022-12-03T22:50:48.129Z,3.73
2022-12-03T22:53:54.757Z,3.86
2022-12-03T22:56:57.321Z,3.67
2022-12-03T22:59:59.916Z,3.58
2022-12-03T23:03:04.770Z,3.61
2022-12-03T23:06:11.104Z,3.39
2022-12-03T23:09:13.830Z,3.45
2022-12-03T23:12:16.299Z,3.55
2022-12-03T23:15:18.751Z,3.54
2022-12-03T23:18:22.594Z,3.57
2022-12-03T23:21:29.886Z,3.38
2022-12-03T23:24:33.116Z,3.13
2022-12-03T23:27:35.686Z,3.15
2022-12-03T23:30:39.262Z,3.23
2022-12-03T23:33:43.048Z,3.36
2022-12-03T23:36:45.472Z,3.42
2022-12-03T23:39:48.214Z,3.44
2022-12-03T23:42:50.670Z,3.32
2022-12-03T23:45:53.083Z,3.02
2022-12-03T23:48:58.782Z,3.04
2022-12-03T23:52:01.268Z,3.15
2022-12-03T23:55:04.202Z,3.16
2022-12-03T23:58:07.702Z,3.15
